createdAt,value
2022-09-11T00:01:59.007Z,100471.78
2022-09-11T00:04:27.388Z,100468.84
2022-09-11T00:06:54.354Z,100469.47
2022-09-11T00:09:21.137Z,100475.00
2022-09-11T00:11:47.782Z,100478.69
2022-09-11T00:14:15.068Z,100475.00
2022-09-11T00:16:47.658Z,100478.03
2022-09-11T00:19:19.597Z,100478.88
2022-09-11T00:21:47.362Z,100476.19
2022-09-11T00:24:14.347Z,100483.06
2022-09-11T00:26:42.643Z,100478.28
2022-09-11T00:29:09.846Z,100474.78
2022-09-11T00:31:36.916Z,100477.69
2022-09-11T00:34:07.862Z,100483.53
2022-09-11T00:36:54.891Z,100489.53
2022-09-11T00:39:22.130Z,100485.78
2022-09-11T00:41:52.170Z,100482.56
2022-09-11T00:44:24.763Z,100483.41
2022-09-11T00:46:57.241Z,100484.09
2022-09-11T00:49:40.346Z,100489.84
2022-09-11T00:52:22.657Z,100484.91
2022-09-11T00:54:56.982Z,100487.81
2022-09-11T00:57:29.147Z,100498.16
2022-09-11T01:00:01.430Z,100490.72
2022-09-11T01:02:32.691Z,100499.03
2022-09-11T01:05:00.172Z,100494.25
2022-09-11T01:07:27.126Z,100490.13
2022-09-11T01:09:54.257Z,100500.88
2022-09-11T01:12:41.078Z,100496.94
2022-09-11T01:15:09.630Z,100500.84
2022-09-11T01:18:03.372Z,100494.97
2022-09-11T01:21:02.799Z,100499.13
2022-09-11T01:23:48.919Z,100503.72
2022-09-11T01:26:20.270Z,100501.81
2022-09-11T01:32:09.308Z,100512.84
2022-09-11T01:35:10.755Z,100511.78
2022-09-11T01:37:41.586Z,100519.41
2022-09-11T01:40:22.869Z,100518.53
2022-09-11T01:43:05.881Z,100518.78
2022-09-11T01:45:46.230Z,100524.53
2022-09-11T01:48:26.411Z,100530.75
2022-09-11T01:50:57.092Z,100534.66
2022-09-11T01:53:27.404Z,100536.50
2022-09-11T01:56:21.687Z,100537.13
2022-09-11T01:58:52.251Z,100541.03
2022-09-11T02:01:27.255Z,100541.50
2022-09-11T02:04:07.533Z,100539.66
2022-09-11T02:06:52.240Z,100545.09
2022-09-11T02:09:26.031Z,100548.59
2022-09-11T02:11:55.462Z,100557.53
2022-09-11T02:14:40.782Z,100560.88
2022-09-11T02:17:21.056Z,100564.31
2022-09-11T02:20:12.313Z,100562.34
2022-09-11T02:22:40.462Z,100565.22
2022-09-11T02:25:22.601Z,100563.72
2022-09-11T02:28:04.401Z,100575.97
2022-09-11T02:30:33.905Z,100569.72
2022-09-11T02:33:01.874Z,100578.06
2022-09-11T02:35:43.812Z,100572.84
2022-09-11T02:38:32.910Z,100570.00
2022-09-11T02:41:15.140Z,100573.69
2022-09-11T02:44:11.573Z,100571.38
2022-09-11T02:46:52.956Z,100575.50
2022-09-11T02:49:55.120Z,100577.16
2022-09-11T02:52:37.711Z,100577.78
2022-09-11T02:55:12.588Z,100579.28
2022-09-11T02:57:46.624Z,100582.75
2022-09-11T03:00:14.008Z,100582.81
2022-09-11T03:02:43.759Z,100581.75
2022-09-11T03:05:15.615Z,100585.72
2022-09-11T03:07:42.550Z,100582.41
2022-09-11T03:10:12.169Z,100578.94
2022-09-11T03:12:39.852Z,100583.47
2022-09-11T03:15:08.313Z,100585.97
2022-09-11T03:17:35.426Z,100581.63
2022-09-11T03:20:06.149Z,100583.28
2022-09-11T03:22:40.929Z,100590.75
2022-09-11T03:25:14.826Z,100590.53
2022-09-11T03:28:11.513Z,100590.31
2022-09-11T03:30:40.250Z,100594.06
2022-09-11T03:33:24.755Z,100591.53
2022-09-11T03:36:05.621Z,100598.16
2022-09-11T03:38:44.975Z,100591.72
2022-09-11T03:41:17.254Z,100594.66
2022-09-11T03:43:53.463Z,100600.66
2022-09-11T03:46:25.935Z,100601.47
2022-09-11T03:49:09.929Z,100603.09
2022-09-11T03:51:38.330Z,100611.59
2022-09-11T03:54:21.020Z,100614.13
2022-09-11T03:56:51.848Z,100607.47
2022-09-11T03:59:21.008Z,100604.72
2022-09-11T04:01:50.741Z,100608.09
2022-09-11T04:04:18.020Z,100612.03
2022-09-11T04:06:47.558Z,100617.84
2022-09-11T04:09:14.820Z,100624.88
2022-09-11T04:11:43.949Z,100621.31
2022-09-11T04:14:19.319Z,100625.53
2022-09-11T04:16:46.310Z,100624.47
2022-09-11T04:19:13.357Z,100632.13
2022-09-11T04:21:42.421Z,100632.19
2022-09-11T04:24:15.888Z,100634.66
2022-09-11T04:26:46.960Z,100635.06
2022-09-11T04:29:23.333Z,100647.66
2022-09-11T04:31:51.609Z,100646.00
2022-09-11T04:34:19.304Z,100648.50
2022-09-11T04:36:47.213Z,100655.16
2022-09-11T04:39:19.358Z,100651.63
2022-09-11T04:41:49.671Z,100652.84
2022-09-11T04:44:26.934Z,100655.97
2022-09-11T04:47:04.670Z,100662.75
2022-09-11T04:49:32.278Z,100659.25
2022-09-11T04:52:16.983Z,100652.84
2022-09-11T04:54:47.012Z,100660.94
2022-09-11T04:57:16.634Z,100661.94
2022-09-11T04:59:48.505Z,100676.31
2022-09-11T05:02:18.170Z,100672.78
2022-09-11T05:04:52.296Z,100673.28
2022-09-11T05:07:19.428Z,100673.31
2022-09-11T05:09:49.329Z,100675.19
2022-09-11T05:12:18.267Z,100684.78
2022-09-11T05:14:46.624Z,100691.75
2022-09-11T05:17:19.268Z,100693.22
2022-09-11T05:19:47.058Z,100697.63
2022-09-11T05:22:16.142Z,100695.13
2022-09-11T05:24:48.377Z,100704.03
2022-09-11T05:27:15.263Z,100705.31
2022-09-11T05:29:42.289Z,100708.22
2022-09-11T05:32:14.442Z,100710.88
2022-09-11T05:34:44.983Z,100718.34
2022-09-11T05:37:15.187Z,100721.66
2022-09-11T05:39:48.069Z,100726.63
2022-09-11T05:42:21.375Z,100729.31
2022-09-11T05:44:52.628Z,100735.75
2022-09-11T05:47:21.090Z,100738.41
2022-09-11T05:49:50.980Z,100738.44
2022-09-11T05:52:18.263Z,100737.59
2022-09-11T05:54:46.894Z,100739.44
2022-09-11T05:57:16.965Z,100744.19
2022-09-11T05:59:46.002Z,100741.69
2022-09-11T06:02:16.257Z,100752.47
2022-09-11T06:04:51.085Z,100753.09
2022-09-11T06:07:23.488Z,100760.94
2022-09-11T06:09:53.947Z,100753.28
2022-09-11T06:12:22.346Z,100761.78
2022-09-11T06:14:52.843Z,100765.47
2022-09-11T06:17:21.493Z,100769.84
2022-09-11T06:19:48.196Z,100768.78
2022-09-11T06:22:16.298Z,100775.38
2022-09-11T06:24:44.573Z,100778.31
2022-09-11T06:27:11.525Z,100774.56
2022-09-11T06:29:44.093Z,100775.19
2022-09-11T06:32:13.465Z,100773.72
2022-09-11T06:34:43.522Z,100778.25
2022-09-11T06:37:13.703Z,100775.34
2022-09-11T06:39:48.244Z,100784.03
2022-09-11T06:42:25.353Z,100785.72
2022-09-11T06:45:00.156Z,100790.88
2022-09-11T06:47:29.477Z,100783.63
2022-09-11T06:50:12.073Z,100789.63
2022-09-11T06:53:15.502Z,100798.75
2022-09-11T06:55:53.923Z,100804.94
2022-09-11T06:58:23.569Z,100804.09
2022-09-11T07:00:52.618Z,100809.06
2022-09-11T07:03:23.270Z,100807.41
2022-09-11T07:05:52.112Z,100816.13
2022-09-11T07:08:24.740Z,100805.38
2022-09-11T07:10:57.273Z,100808.25
2022-09-11T07:13:24.466Z,100811.97
2022-09-11T07:16:05.788Z,100816.31
2022-09-11T07:18:43.224Z,100813.63
2022-09-11T07:21:21.730Z,100812.19
2022-09-11T07:23:54.479Z,100816.72
2022-09-11T07:26:23.308Z,100819.03
2022-09-11T07:28:55.075Z,100820.69
2022-09-11T07:31:29.402Z,100822.28
2022-09-11T07:33:57.630Z,100823.56
2022-09-11T07:36:28.016Z,100823.31
2022-09-11T07:38:57.892Z,100821.44
2022-09-11T07:41:33.834Z,100825.56
2022-09-11T07:44:06.119Z,100834.25
2022-09-11T07:46:35.347Z,100827.81
2022-09-11T07:49:12.502Z,100830.88
2022-09-11T07:51:57.829Z,100829.22
2022-09-11T07:54:34.879Z,100828.59
2022-09-11T07:57:03.472Z,100837.31
2022-09-11T07:59:31.369Z,100832.94
2022-09-11T08:02:00.284Z,100840.34
2022-09-11T08:04:28.944Z,100846.78
2022-09-11T08:06:56.950Z,100849.31
2022-09-11T08:09:30.946Z,100846.59
2022-09-11T08:12:02.303Z,100851.56
2022-09-11T08:14:31.691Z,100851.13
2022-09-11T08:17:06.187Z,100848.44
2022-09-11T08:19:33.327Z,100858.44
2022-09-11T08:22:05.262Z,100862.78
2022-09-11T08:27:43.126Z,100866.13
2022-09-11T08:30:16.425Z,100864.03
2022-09-11T08:32:43.418Z,100863.81
2022-09-11T08:35:13.365Z,100873.34
2022-09-11T08:37:45.011Z,100867.31
2022-09-11T08:40:16.901Z,100877.03
2022-09-11T08:43:00.997Z,100873.84
2022-09-11T08:45:33.953Z,100876.09
2022-09-11T08:48:09.254Z,100875.38
2022-09-11T08:50:45.840Z,100872.16
2022-09-11T08:56:11.412Z,100878.88
2022-09-11T08:59:18.887Z,100886.81
2022-09-11T09:02:39.288Z,100889.44
2022-09-11T09:05:32.458Z,100895.59
2022-09-11T09:08:18.373Z,100903.59
2022-09-11T09:10:53.032Z,100903.31
2022-09-11T09:13:39.499Z,100905.38
2022-09-11T09:16:31.437Z,100904.72
2022-09-11T09:19:03.248Z,100905.00
2022-09-11T09:21:32.182Z,100904.25
2022-09-11T09:24:03.795Z,100906.31
2022-09-11T09:26:40.250Z,100917.09
2022-09-11T09:29:23.914Z,100921.44
2022-09-11T09:31:54.408Z,100921.53
2022-09-11T09:34:31.251Z,100918.75
2022-09-11T09:37:27.997Z,100914.31
2022-09-11T09:39:55.876Z,100923.78
2022-09-11T09:42:44.891Z,100919.84
2022-09-11T09:45:26.502Z,100912.88
2022-09-11T09:47:56.305Z,100915.53
2022-09-11T09:50:33.409Z,100910.94
2022-09-11T09:53:11.477Z,100904.13
2022-09-11T09:55:41.264Z,100897.34
2022-09-11T09:58:07.906Z,100879.00
2022-09-11T10:00:37.319Z,100868.41
2022-09-11T10:03:21.969Z,100844.13
2022-09-11T10:06:10.439Z,100840.97
2022-09-11T10:08:40.520Z,100834.25
2022-09-11T10:11:11.091Z,100832.03
2022-09-11T10:13:53.604Z,100829.22
2022-09-11T10:16:21.975Z,100823.78
2022-09-11T10:18:53.093Z,100823.91
2022-09-11T10:24:42.945Z,100816.84
2022-09-11T10:27:21.060Z,100831.09
2022-09-11T10:30:02.445Z,100839.56
2022-09-11T10:32:42.869Z,100833.59
2022-09-11T10:35:19.385Z,100828.63
2022-09-11T10:38:13.774Z,100823.56
2022-09-11T10:41:22.156Z,100821.06
2022-09-11T10:43:51.331Z,100826.69
2022-09-11T10:46:17.853Z,100830.31
2022-09-11T10:49:00.845Z,100836.69
2022-09-11T10:51:30.033Z,100833.03
2022-09-11T10:54:24.401Z,100837.88
2022-09-11T10:57:05.793Z,100839.66
2022-09-11T11:00:07.946Z,100834.13
2022-09-11T11:02:52.765Z,100834.94
2022-09-11T11:05:45.200Z,100832.84
2022-09-11T11:08:42.928Z,100832.72
2022-09-11T11:11:40.706Z,100819.56
2022-09-11T11:14:21.257Z,100827.31
2022-09-11T11:17:06.175Z,100818.16
2022-09-11T11:19:51.549Z,100821.78
2022-09-11T11:22:36.994Z,100816.16
2022-09-11T11:25:21.640Z,100827.22
2022-09-11T11:28:18.264Z,100826.28
2022-09-11T11:30:50.764Z,100827.34
2022-09-11T11:33:20.175Z,100828.50
2022-09-11T11:35:52.755Z,100818.03
2022-09-11T11:38:24.304Z,100818.81
2022-09-11T11:41:25.726Z,100816.81
2022-09-11T11:44:32.800Z,100817.97
2022-09-11T11:47:05.080Z,100819.69
2022-09-11T11:49:55.298Z,100815.75
2022-09-11T11:52:49.488Z,100812.53
2022-09-11T11:55:20.782Z,100810.88
2022-09-11T11:58:01.732Z,100814.19
2022-09-11T12:00:29.609Z,100803.59
2022-09-11T12:03:42.919Z,100806.78
2022-09-11T12:06:11.645Z,100810.53
2022-09-11T12:09:00.127Z,100820.75
2022-09-11T12:11:40.198Z,100810.03
2022-09-11T12:14:39.756Z,100809.91
2022-09-11T12:17:29.990Z,100804.72
2022-09-11T12:20:12.448Z,100800.25
2022-09-11T12:22:53.635Z,100793.66
2022-09-11T12:25:33.685Z,100802.72
2022-09-11T12:28:10.932Z,100803.53
2022-09-11T12:31:08.002Z,100803.56
2022-09-11T12:33:41.027Z,100799.06
2022-09-11T12:36:17.614Z,100795.66
2022-09-11T12:39:25.191Z,100794.59
2022-09-11T12:41:52.009Z,100788.25
2022-09-11T12:44:30.050Z,100794.59
2022-09-11T12:46:56.663Z,100800.84
2022-09-11T12:49:24.189Z,100793.88
2022-09-11T12:51:55.936Z,100799.19
2022-09-11T12:54:25.056Z,100798.72
2022-09-11T12:57:06.889Z,100798.25
2022-09-11T12:59:37.964Z,100795.66
2022-09-11T13:02:16.419Z,100794.13
2022-09-11T13:04:43.691Z,100785.91
2022-09-11T13:07:26.488Z,100784.94
2022-09-11T13:09:54.397Z,100789.41
2022-09-11T13:12:23.935Z,100786.09
2022-09-11T13:14:56.282Z,100779.16
2022-09-11T13:17:30.341Z,100779.50
2022-09-11T13:20:21.528Z,100759.75
2022-09-11T13:22:49.109Z,100729.34
2022-09-11T13:25:28.272Z,100738.72
2022-09-11T13:27:57.143Z,100727.22
2022-09-11T13:30:24.755Z,100729.19
2022-09-11T13:33:03.277Z,100732.13
2022-09-11T13:35:30.088Z,100736.97
2022-09-11T13:38:02.508Z,100741.59
2022-09-11T13:40:56.963Z,100724.91
2022-09-11T13:43:29.761Z,100701.13
2022-09-11T13:46:10.562Z,100704.78
2022-09-11T13:48:37.354Z,100699.59
2022-09-11T13:51:05.619Z,100704.56
2022-09-11T13:53:33.661Z,100715.75
2022-09-11T13:56:00.310Z,100717.47
2022-09-11T13:58:35.218Z,100716.69
2022-09-11T14:01:12.326Z,100720.47
2022-09-11T14:03:43.452Z,100726.78
2022-09-11T14:06:14.304Z,100725.06
2022-09-11T14:08:50.066Z,100725.16
2022-09-11T14:11:26.058Z,100732.88
2022-09-11T14:14:00.153Z,100720.34
2022-09-11T14:16:34.572Z,100719.69
2022-09-11T14:19:11.009Z,100717.34
2022-09-11T14:21:39.467Z,100706.81
2022-09-11T14:24:24.353Z,100678.59
2022-09-11T14:26:59.550Z,100690.34
2022-09-11T14:29:31.607Z,100695.13
2022-09-11T14:32:27.511Z,100697.97
2022-09-11T14:34:54.506Z,100698.84
2022-09-11T14:37:21.778Z,100704.00
2022-09-11T14:40:00.179Z,100702.59
2022-09-11T14:42:29.119Z,100696.78
2022-09-11T14:44:56.134Z,100696.03
2022-09-11T14:47:25.296Z,100698.41
2022-09-11T14:49:53.558Z,100706.56
2022-09-11T14:52:24.903Z,100709.59
2022-09-11T14:54:53.888Z,100712.66
2022-09-11T14:57:26.278Z,100702.06
2022-09-11T14:59:53.138Z,100699.13
2022-09-11T15:02:22.302Z,100701.78
2022-09-11T15:04:53.429Z,100703.75
2022-09-11T15:07:23.308Z,100713.41
2022-09-11T15:09:53.136Z,100704.69
2022-09-11T15:12:20.684Z,100697.38
2022-09-11T15:14:57.777Z,100695.22
2022-09-11T15:17:25.592Z,100694.53
2022-09-11T15:19:54.341Z,100694.53
2022-09-11T15:22:21.289Z,100687.22
2022-09-11T15:24:49.860Z,100683.03
2022-09-11T15:27:19.049Z,100682.88
2022-09-11T15:29:46.149Z,100685.66
2022-09-11T15:32:14.467Z,100683.94
2022-09-11T15:34:42.015Z,100687.22
2022-09-11T15:37:08.689Z,100688.44
2022-09-11T15:39:35.444Z,100682.88
2022-09-11T15:42:02.188Z,100671.91
2022-09-11T15:44:29.098Z,100686.44
2022-09-11T15:46:57.407Z,100683.97
2022-09-11T15:49:25.457Z,100682.88
2022-09-11T15:51:53.960Z,100681.00
2022-09-11T15:54:23.347Z,100681.28
2022-09-11T15:56:51.281Z,100682.47
2022-09-11T15:59:18.135Z,100686.88
2022-09-11T16:01:45.153Z,100679.34
2022-09-11T16:04:14.474Z,100682.28
2022-09-11T16:06:43.027Z,100697.03
2022-09-11T16:09:12.798Z,100691.63
2022-09-11T16:11:43.907Z,100696.09
2022-09-11T16:14:18.788Z,100699.84
2022-09-11T16:16:47.181Z,100689.06
2022-09-11T16:19:18.567Z,100697.88
2022-09-11T16:21:46.580Z,100700.34
2022-09-11T16:24:15.515Z,100701.94
2022-09-11T16:26:44.039Z,100701.09
2022-09-11T16:29:12.487Z,100700.75
2022-09-11T16:31:40.055Z,100702.16
2022-09-11T16:34:07.346Z,100696.72
2022-09-11T16:36:38.861Z,100694.94
2022-09-11T16:39:10.725Z,100710.78
2022-09-11T16:41:37.640Z,100702.78
2022-09-11T16:44:05.734Z,100698.28
2022-09-11T16:46:33.357Z,100703.56
2022-09-11T16:49:02.710Z,100699.44
2022-09-11T16:51:30.127Z,100701.53
2022-09-11T16:53:56.932Z,100704.69
2022-09-11T16:56:24.528Z,100688.13
2022-09-11T16:58:51.442Z,100699.75
2022-09-11T17:01:20.613Z,100694.47
2022-09-11T17:03:49.501Z,100693.34
2022-09-11T17:06:16.807Z,100693.41
2022-09-11T17:08:44.745Z,100692.47
2022-09-11T17:11:13.791Z,100689.63
2022-09-11T17:13:41.828Z,100686.06
2022-09-11T17:16:15.984Z,100697.72
2022-09-11T17:18:54.015Z,100698.44
2022-09-11T17:21:25.763Z,100703.50
2022-09-11T17:23:54.368Z,100700.91
2022-09-11T17:26:21.837Z,100699.56
2022-09-11T17:28:49.521Z,100703.59
2022-09-11T17:31:17.615Z,100703.41
2022-09-11T17:33:45.473Z,100703.94
2022-09-11T17:36:13.422Z,100703.38
2022-09-11T17:38:40.400Z,100700.94
2022-09-11T17:41:08.283Z,100711.72
2022-09-11T17:43:36.436Z,100719.25
2022-09-11T17:46:12.241Z,100714.13
2022-09-11T17:48:39.943Z,100717.28
2022-09-11T17:51:14.166Z,100719.41
2022-09-11T17:53:43.085Z,100716.88
2022-09-11T17:56:14.272Z,100720.84
2022-09-11T17:58:42.087Z,100725.47
2022-09-11T18:01:09.138Z,100737.13
2022-09-11T18:03:36.390Z,100732.69
2022-09-11T18:06:05.292Z,100734.00
2022-09-11T18:08:33.307Z,100737.16
2022-09-11T18:11:01.058Z,100745.25
2022-09-11T18:13:31.391Z,100755.66
2022-09-11T18:15:58.054Z,100744.88
2022-09-11T18:18:25.002Z,100749.84
2022-09-11T18:20:55.400Z,100751.94
2022-09-11T18:23:23.172Z,100757.34
2022-09-11T18:25:50.838Z,100749.09
2022-09-11T18:28:19.910Z,100755.94
2022-09-11T18:30:47.423Z,100756.56
2022-09-11T18:33:16.669Z,100758.22
2022-09-11T18:35:44.288Z,100758.00
2022-09-11T18:38:11.185Z,100763.63
2022-09-11T18:40:37.849Z,100771.31
2022-09-11T18:43:06.258Z,100768.38
2022-09-11T18:45:35.483Z,100776.47
2022-09-11T18:48:03.316Z,100766.75
2022-09-11T18:50:30.106Z,100774.16
2022-09-11T18:52:56.865Z,100773.78
2022-09-11T18:55:25.016Z,100775.03
2022-09-11T18:57:52.053Z,100781.03
2022-09-11T19:00:20.488Z,100777.91
2022-09-11T19:02:47.929Z,100784.53
2022-09-11T19:05:17.949Z,100786.13
2022-09-11T19:07:45.601Z,100784.91
2022-09-11T19:10:12.571Z,100784.25
2022-09-11T19:12:39.971Z,100791.28
2022-09-11T19:15:10.337Z,100793.91
2022-09-11T19:17:39.815Z,100794.34
2022-09-11T19:20:09.694Z,100793.28
2022-09-11T19:22:36.304Z,100795.97
2022-09-11T19:25:03.514Z,100793.66
2022-09-11T19:27:31.666Z,100792.41
2022-09-11T19:29:59.913Z,100802.59
2022-09-11T19:32:28.425Z,100805.28
2022-09-11T19:34:55.261Z,100793.91
2022-09-11T19:37:21.835Z,100793.06
2022-09-11T19:39:50.767Z,100793.22
2022-09-11T19:42:18.101Z,100788.25
2022-09-11T19:44:45.543Z,100791.47
2022-09-11T19:47:12.462Z,100787.97
2022-09-11T19:49:39.070Z,100787.38
2022-09-11T19:52:06.553Z,100783.41
2022-09-11T19:54:34.614Z,100788.84
2022-09-11T19:57:02.350Z,100781.81
2022-09-11T19:59:29.045Z,100784.50
2022-09-11T20:01:55.709Z,100774.53
2022-09-11T20:04:27.445Z,100778.28
2022-09-11T20:09:30.852Z,100765.41
2022-09-11T20:11:57.929Z,100768.50
2022-09-11T20:14:24.539Z,100768.50
2022-09-11T20:16:51.160Z,100767.00
2022-09-11T20:19:17.785Z,100775.53
2022-09-11T20:21:44.386Z,100772.44
2022-09-11T20:24:10.939Z,100772.06
2022-09-11T20:26:37.592Z,100777.84
2022-09-11T20:29:07.160Z,100775.72
2022-09-11T20:31:46.403Z,100771.75
2022-09-11T20:34:17.575Z,100777.94
2022-09-11T20:36:44.539Z,100779.16
2022-09-11T20:39:15.090Z,100776.81
2022-09-11T20:41:44.654Z,100773.25
2022-09-11T20:44:12.030Z,100768.53
2022-09-11T20:46:38.907Z,100760.63
2022-09-11T20:49:06.691Z,100759.25
2022-09-11T20:51:34.649Z,100749.78
2022-09-11T20:54:01.547Z,100745.66
2022-09-11T20:56:28.341Z,100746.25
2022-09-11T20:58:55.720Z,100739.88
2022-09-11T21:01:24.927Z,100734.53
2022-09-11T21:03:53.831Z,100728.00
2022-09-11T21:06:25.644Z,100730.53
2022-09-11T21:08:55.382Z,100731.19
2022-09-11T21:11:23.690Z,100725.63
2022-09-11T21:13:50.468Z,100730.22
2022-09-11T21:16:17.712Z,100731.28
2022-09-11T21:18:49.658Z,100720.06
2022-09-11T21:21:17.000Z,100728.81
2022-09-11T21:23:43.630Z,100733.09
2022-09-11T21:26:11.610Z,100727.75
2022-09-11T21:28:38.179Z,100736.84
2022-09-11T21:31:04.996Z,100739.97
2022-09-11T21:33:33.122Z,100732.50
2022-09-11T21:35:59.982Z,100745.97
2022-09-11T21:38:30.409Z,100750.75
2022-09-11T21:40:58.454Z,100743.72
2022-09-11T21:43:25.870Z,100735.47
2022-09-11T21:45:52.849Z,100741.84
2022-09-11T21:48:19.535Z,100741.47
2022-09-11T21:50:46.140Z,100743.56
2022-09-11T21:53:12.763Z,100743.38
2022-09-11T21:55:41.160Z,100748.69
2022-09-11T21:58:08.130Z,100746.22
2022-09-11T22:00:42.021Z,100748.50
2022-09-11T22:03:10.201Z,100749.75
2022-09-11T22:05:45.028Z,100744.16
2022-09-11T22:08:13.005Z,100748.53
2022-09-11T22:10:50.436Z,100758.31
2022-09-11T22:13:18.369Z,100756.41
2022-09-11T22:15:47.387Z,100755.56
2022-09-11T22:18:14.758Z,100752.69
2022-09-11T22:20:41.783Z,100752.28
2022-09-11T22:23:11.619Z,100754.97
2022-09-11T22:25:40.186Z,100752.09
2022-09-11T22:28:07.160Z,100753.56
2022-09-11T22:30:33.773Z,100756.09
2022-09-11T22:33:00.587Z,100755.06
2022-09-11T22:35:28.247Z,100754.47
2022-09-11T22:37:54.871Z,100757.16
2022-09-11T22:40:21.434Z,100755.22
2022-09-11T22:42:48.121Z,100763.03
2022-09-11T22:45:14.739Z,100764.91
2022-09-11T22:47:41.357Z,100766.31
2022-09-11T22:50:08.299Z,100760.69
2022-09-11T22:52:36.823Z,100760.44
2022-09-11T22:55:05.179Z,100769.13
2022-09-11T22:57:31.893Z,100776.34
2022-09-11T22:59:58.981Z,100762.19
2022-09-11T23:02:27.062Z,100770.00
2022-09-11T23:05:12.039Z,100777.56
2022-09-11T23:07:38.616Z,100772.97
2022-09-11T23:10:05.680Z,100776.94
2022-09-11T23:12:32.222Z,100774.19
2022-09-11T23:14:58.787Z,100763.47
2022-09-11T23:17:26.462Z,100756.88
2022-09-11T23:19:53.140Z,100760.66
2022-09-11T23:22:20.045Z,100761.75
2022-09-11T23:24:46.631Z,100758.66
2022-09-11T23:27:13.177Z,100746.84
2022-09-11T23:29:39.796Z,100752.25
2022-09-11T23:32:07.130Z,100745.84
2022-09-11T23:34:35.880Z,100744.00
2022-09-11T23:37:02.491Z,100742.34
2022-09-11T23:39:28.996Z,100747.38
2022-09-11T23:41:55.635Z,100756.31
2022-09-11T23:44:22.212Z,100746.63
2022-09-11T23:46:51.011Z,100743.94
2022-09-11T23:49:17.621Z,100744.59
2022-09-11T23:51:44.196Z,100743.75
2022-09-11T23:54:10.745Z,100739.22
2022-09-11T23:56:37.312Z,100741.28
2022-09-11T23:59:03.877Z,100744.00
